Time;durP1;ratioP1;P1;durP2;ratioP2;P2;SDS_P1;SDS_P2;PMS_P1;PMS_P2;Temp;Humidity;BMP_temperature;BMP_pressure;BME280_temperature;BME280_humidity;BME280_pressure;Samples;Min_cycle;Max_cycle;Signal;HPM_P1;HPM_P2
2021/05/30 00:00:15;;;;;;;4.32;1.62;;;25.20;52.60;;;;;;4371201;32;20498;-38
2021/05/30 00:02:41;;;;;;;7.22;1.70;;;25.30;52.80;;;;;;4371222;32;20066;-37
2021/05/30 00:05:09;;;;;;;3.55;1.33;;;25.40;52.80;;;;;;4370506;32;20081;-37
2021/05/30 00:07:36;;;;;;;5.85;1.73;;;25.40;52.50;;;;;;4371105;32;20097;-37
2021/05/30 00:10:06;;;;;;;3.67;0.98;;;25.50;53.10;;;;;;4388044;32;20521;-37
2021/05/30 00:12:34;;;;;;;5.00;1.70;;;25.50;52.40;;;;;;4374113;32;20162;-37
2021/05/30 00:15:01;;;;;;;5.97;2.33;;;25.60;51.90;;;;;;4388114;32;20072;-39
2021/05/30 00:17:27;;;;;;;6.35;1.92;;;25.50;51.30;;;;;;4374051;32;20509;-39
2021/05/30 00:19:54;;;;;;;4.22;1.35;;;25.50;51.20;;;;;;4388059;32;20061;-39
2021/05/30 00:22:20;;;;;;;3.67;1.77;;;25.50;51.20;;;;;;4388162;32;20070;-39
2021/05/30 00:24:47;;;;;;;5.62;1.50;;;25.50;51.20;;;;;;4387606;32;20152;-40
2021/05/30 00:27:13;;;;;;;5.32;1.30;;;25.50;51.40;;;;;;4387822;32;20054;-41
2021/05/30 00:29:40;;;;;;;4.70;1.62;;;25.50;51.50;;;;;;4388483;32;20066;-41
2021/05/30 00:32:07;;;;;;;3.40;1.50;;;25.50;52.50;;;;;;4388198;32;20066;-41
2021/05/30 00:34:33;;;;;;;6.28;1.90;;;25.60;52.10;;;;;;4388244;32;20072;-42
2021/05/30 00:37:00;;;;;;;4.28;1.23;;;25.70;51.90;;;;;;4387822;32;20528;-41
2021/05/30 00:39:26;;;;;;;3.17;1.30;;;25.80;51.80;;;;;;4387259;32;20175;-42
2021/05/30 00:41:52;;;;;;;5.12;1.23;;;25.80;51.40;;;;;;4388195;32;20553;-41
2021/05/30 00:44:27;;;;;;;5.68;1.42;;;25.90;51.30;;;;;;4387561;32;20077;-40
2021/05/30 00:46:54;;;;;;;2.97;1.20;;;26.00;51.10;;;;;;4387760;32;20082;-40
2021/05/30 00:49:21;;;;;;;2.97;1.10;;;26.00;50.60;;;;;;4388074;32;20084;-40
2021/05/30 00:51:48;;;;;;;2.83;1.48;;;26.00;50.50;;;;;;4390937;32;20104;-41
2021/05/30 00:54:14;;;;;;;2.15;1.12;;;26.00;50.80;;;;;;4376334;32;20146;-42
2021/05/30 00:56:41;;;;;;;4.68;1.20;;;26.10;51.10;;;;;;4390750;32;20077;-41
2021/05/30 00:59:12;;;;;;;3.87;1.62;;;26.20;51.20;;;;;;4390272;32;20177;-41
2021/05/30 01:01:39;;;;;;;2.80;1.60;;;26.30;51.00;;;;;;4390255;32;20084;-40
2021/05/30 01:04:06;;;;;;;5.43;1.20;;;26.30;50.60;;;;;;4390396;32;20126;-41
2021/05/30 01:06:33;;;;;;;3.00;1.40;;;26.40;50.60;;;;;;4375946;32;20583;-41
2021/05/30 01:09:01;;;;;;;2.53;1.50;;;26.50;50.10;;;;;;4390420;32;20100;-42
2021/05/30 01:11:27;;;;;;;3.83;2.62;;;26.50;50.00;;;;;;4357631;32;20074;-42
2021/05/30 01:13:55;;;;;;;6.97;2.47;;;26.50;49.90;;;;;;4358163;32;20098;-41
2021/05/30 01:16:22;;;;;;;5.78;2.95;;;26.40;49.90;;;;;;4357926;32;20063;-41
2021/05/30 01:18:50;;;;;;;8.68;3.92;;;26.40;49.90;;;;;;4357370;32;20124;-40
2021/05/30 01:21:16;;;;;;;8.40;4.90;;;26.50;49.80;;;;;;4357489;32;20514;-42
2021/05/30 01:23:43;;;;;;;8.93;4.03;;;26.50;49.60;;;;;;4357096;32;20105;-40
2021/05/30 01:26:10;;;;;;;11.27;4.95;;;26.60;50.00;;;;;;4357143;32;20097;-42
2021/05/30 01:28:37;;;;;;;17.20;5.47;;;26.60;50.00;;;;;;4357387;32;20089;-40
2021/05/30 01:31:03;;;;;;;10.15;4.78;;;26.60;49.80;;;;;;4357544;32;20070;-40
2021/05/30 01:33:30;;;;;;;11.48;5.12;;;26.70;49.60;;;;;;4357685;32;20071;-40
2021/05/30 01:35:56;;;;;;;10.75;5.15;;;26.70;49.50;;;;;;4357676;32;20075;-39
2021/05/30 01:38:22;;;;;;;11.73;4.43;;;26.80;49.40;;;;;;4357271;32;20063;-39
2021/05/30 01:40:49;;;;;;;6.90;3.97;;;26.80;49.40;;;;;;4356816;32;20753;-40
2021/05/30 01:43:15;;;;;;;9.52;4.30;;;26.90;49.30;;;;;;4357015;32;20137;-39
2021/05/30 01:45:42;;;;;;;11.57;5.62;;;27.00;49.10;;;;;;4357270;32;20088;-39
2021/05/30 01:48:08;;;;;;;8.35;4.18;;;27.00;49.10;;;;;;4360231;32;20210;-39
2021/05/30 01:50:35;;;;;;;6.60;2.67;;;27.00;49.10;;;;;;4374787;32;20607;-39
2021/05/30 01:53:08;;;;;;;5.82;3.37;;;27.00;48.90;;;;;;4374487;32;20066;-38
2021/05/30 01:58:21;;;;;;;5.32;2.78;;;27.10;49.10;;;;;;4357850;32;20137;-38
2021/05/30 02:00:49;;;;;;;14.10;3.85;;;27.10;48.60;;;;;;4374301;32;20150;-38
2021/05/30 02:03:16;;;;;;;5.95;3.33;;;27.10;48.50;;;;;;4374339;32;20183;-38
2021/05/30 02:05:51;;;;;;;4.10;2.90;;;27.10;48.40;;;;;;4374609;32;20070;-37
2021/05/30 02:08:18;;;;;;;7.00;3.40;;;27.00;48.30;;;;;;4373118;32;20073;-37
2021/05/30 02:10:44;;;;;;;7.55;3.35;;;27.00;48.30;;;;;;4374493;32;20069;-38
2021/05/30 02:13:12;;;;;;;7.60;3.80;;;27.00;48.40;;;;;;4373938;32;20584;-37
2021/05/30 02:15:38;;;;;;;5.40;3.35;;;27.00;48.50;;;;;;4374244;32;20066;-39
2021/05/30 02:18:05;;;;;;;6.32;3.40;;;26.90;48.50;;;;;;4372546;32;20495;-38
2021/05/30 02:20:40;;;;;;;6.18;3.25;;;26.90;48.90;;;;;;4374112;32;20137;-39
2021/05/30 02:23:13;;;;;;;7.93;3.28;;;27.00;48.90;;;;;;4374249;32;20174;-39
2021/05/30 02:25:40;;;;;;;5.70;3.15;;;27.10;48.50;;;;;;4374094;32;20068;-37
2021/05/30 02:28:07;;;;;;;4.40;2.80;;;27.20;48.40;;;;;;4374283;32;21091;-39
2021/05/30 02:30:33;;;;;;;7.20;3.45;;;27.30;48.40;;;;;;4372279;32;20147;-39
2021/05/30 02:33:01;;;;;;;7.20;3.30;;;27.40;48.40;;;;;;4374325;32;20096;-39
2021/05/30 02:35:28;;;;;;;4.12;2.70;;;27.50;48.40;;;;;;4373834;32;20058;-38
2021/05/30 02:37:57;;;;;;;8.57;3.28;;;27.60;47.90;;;;;;4373603;32;20155;-39
2021/05/30 02:40:24;;;;;;;6.53;3.45;;;27.60;47.80;;;;;;4385681;32;20065;-38
2021/05/30 02:42:50;;;;;;;6.50;3.33;;;27.60;47.50;;;;;;4388503;32;20066;-38
2021/05/30 02:45:16;;;;;;;4.22;2.25;;;27.60;47.10;;;;;;4374732;32;20081;-38
2021/05/30 02:47:43;;;;;;;5.75;2.92;;;27.60;47.40;;;;;;4388842;32;20069;-38
2021/05/30 02:50:10;;;;;;;5.53;2.60;;;27.50;47.20;;;;;;4388427;32;20058;-38
2021/05/30 02:52:36;;;;;;;5.03;2.47;;;27.40;47.30;;;;;;4388869;32;20569;-37
2021/05/30 02:55:03;;;;;;;6.55;2.97;;;27.40;47.50;;;;;;4374627;32;20153;-38
2021/05/30 02:57:30;;;;;;;6.35;2.70;;;27.50;48.20;;;;;;4388641;32;20154;-36
2021/05/30 02:59:56;;;;;;;6.37;2.17;;;27.60;47.90;;;;;;4388825;32;20564;-37
2021/05/30 03:02:23;;;;;;;2.12;1.90;;;27.80;47.50;;;;;;4388517;32;20058;-37
2021/05/30 03:04:49;;;;;;;4.30;1.87;;;28.10;47.30;;;;;;4388637;32;20066;-38
2021/05/30 03:07:16;;;;;;;4.70;1.75;;;28.30;46.50;;;;;;4388644;32;20053;-38
2021/05/30 03:09:42;;;;;;;4.22;1.48;;;28.60;45.80;;;;;;4388543;32;20062;-37
2021/05/30 03:12:09;;;;;;;2.97;1.45;;;28.90;45.60;;;;;;4388431;32;20093;-39
2021/05/30 03:14:35;;;;;;;5.78;2.70;;;29.10;44.70;;;;;;4374244;32;20509;-38
2021/05/30 03:17:02;;;;;;;5.80;2.20;;;29.30;44.20;;;;;;4388626;32;20068;-39
2021/05/30 03:19:28;;;;;;;5.43;1.90;;;29.50;44.10;;;;;;4388136;32;20060;-38
2021/05/30 03:21:54;;;;;;;7.93;2.60;;;29.70;43.70;;;;;;4388470;32;20078;-38
2021/05/30 03:24:21;;;;;;;9.48;2.85;;;29.80;43.80;;;;;;4388278;32;20494;-37
2021/05/30 03:26:48;;;;;;;6.25;2.15;;;30.00;43.00;;;;;;4388024;32;20066;-39
2021/05/30 03:29:14;;;;;;;4.68;2.08;;;30.00;42.60;;;;;;4388179;32;20054;-38
2021/05/30 03:31:40;;;;;;;6.40;3.05;;;30.00;42.40;;;;;;4388208;32;20077;-39
2021/05/30 03:34:07;;;;;;;6.25;2.10;;;30.10;42.40;;;;;;4388081;32;20077;-39
2021/05/30 03:36:34;;;;;;;11.45;2.70;;;30.20;43.00;;;;;;4388399;32;20063;-40
2021/05/30 03:39:03;;;;;;;7.25;2.00;;;30.30;42.90;;;;;;4387987;32;20078;-38
2021/05/30 03:41:34;;;;;;;6.62;2.45;;;30.50;42.70;;;;;;4387937;32;20058;-38
2021/05/30 03:44:01;;;;;;;7.95;2.50;;;30.70;42.10;;;;;;4388161;32;20129;-40
2021/05/30 03:46:27;;;;;;;4.45;1.87;;;31.10;42.00;;;;;;4396198;32;20123;-40
2021/05/30 03:48:54;;;;;;;12.63;2.25;;;31.30;41.70;;;;;;4386403;32;20085;-39
2021/05/30 03:51:20;;;;;;;5.20;1.67;;;31.60;41.40;;;;;;4387865;32;20066;-39
2021/05/30 03:53:47;;;;;;;7.00;2.28;;;31.90;40.80;;;;;;4388250;32;20065;-40
2021/05/30 03:56:14;;;;;;;5.18;1.75;;;32.30;40.10;;;;;;4388008;32;20453;-39
2021/05/30 03:58:40;;;;;;;6.40;2.53;;;32.70;39.90;;;;;;4386300;32;20054;-40
2021/05/30 04:01:06;;;;;;;4.30;1.90;;;33.00;39.10;;;;;;4388443;32;20540;-39
2021/05/30 04:03:33;;;;;;;5.37;1.60;;;33.30;38.90;;;;;;4388505;32;20148;-39
2021/05/30 04:05:59;;;;;;;6.47;2.15;;;33.60;38.50;;;;;;4387994;32;20069;-39
2021/05/30 04:08:26;;;;;;;4.15;1.35;;;33.70;38.20;;;;;;4387887;32;20054;-39
2021/05/30 04:10:52;;;;;;;9.15;2.10;;;33.80;37.70;;;;;;4387755;32;20150;-39
2021/05/30 04:13:19;;;;;;;3.75;1.30;;;33.80;37.70;;;;;;4386254;32;20066;-40
2021/05/30 04:15:46;;;;;;;4.57;1.33;;;33.80;38.10;;;;;;4386260;32;20076;-40
2021/05/30 04:18:12;;;;;;;9.45;1.40;;;33.70;37.90;;;;;;4387448;32;20069;-39
2021/05/30 04:20:39;;;;;;;9.07;1.67;;;33.70;37.80;;;;;;4388120;32;20583;-39
2021/05/30 04:23:05;;;;;;;3.37;1.55;;;33.60;38.10;;;;;;4388229;32;20146;-38
2021/05/30 04:25:32;;;;;;;5.25;2.03;;;33.40;37.70;;;;;;4389944;32;20076;-39
2021/05/30 04:27:58;;;;;;;7.18;1.58;;;33.20;37.80;;;;;;4390736;32;20093;-40
2021/05/30 04:30:25;;;;;;;6.20;1.60;;;33.10;38.10;;;;;;4390819;32;20150;-39
2021/05/30 04:32:51;;;;;;;9.32;2.00;;;33.10;38.10;;;;;;4390590;32;20081;-39
2021/05/30 04:35:18;;;;;;;13.45;2.37;;;33.20;38.40;;;;;;4390775;32;20146;-39
2021/05/30 04:37:45;;;;;;;5.93;1.45;;;33.40;38.30;;;;;;4390928;32;20077;-40
2021/05/30 04:40:12;;;;;;;8.07;1.52;;;33.60;37.50;;;;;;4390697;32;20157;-40
2021/05/30 04:42:39;;;;;;;15.63;1.80;;;33.70;37.10;;;;;;4390761;32;20473;-40
2021/05/30 04:45:07;;;;;;;8.88;1.87;;;33.90;37.10;;;;;;4387678;32;20141;-40
2021/05/30 04:47:33;;;;;;;14.60;2.03;;;34.10;36.60;;;;;;4390797;32;20069;-39
2021/05/30 04:50:00;;;;;;;9.00;2.62;;;34.20;36.20;;;;;;4390462;32;20070;-40
2021/05/30 04:52:26;;;;;;;8.60;1.17;;;34.40;36.00;;;;;;4390856;32;20539;-40
2021/05/30 04:54:53;;;;;;;8.63;2.30;;;34.50;36.00;;;;;;4376024;32;20081;-39
2021/05/30 04:57:19;;;;;;;8.23;2.15;;;34.70;36.10;;;;;;4390037;32;20058;-40
2021/05/30 04:59:45;;;;;;;10.57;3.58;;;34.90;35.80;;;;;;4390230;32;20156;-40
2021/05/30 05:02:12;;;;;;;7.03;3.17;;;35.20;35.80;;;;;;4389876;32;20046;-40
2021/05/30 05:04:38;;;;;;;9.43;1.70;;;35.50;35.30;;;;;;4390434;32;20104;-40
2021/05/30 05:07:05;;;;;;;6.85;1.55;;;35.70;34.20;;;;;;4376058;32;20068;-42
2021/05/30 05:09:31;;;;;;;4.68;1.45;;;35.60;33.80;;;;;;4390250;32;20108;-41
2021/05/30 05:11:58;;;;;;;3.40;1.40;;;35.40;33.50;;;;;;4389998;32;20577;-41
2021/05/30 05:14:24;;;;;;;4.10;1.35;;;35.30;33.80;;;;;;4390011;32;20069;-40
2021/05/30 05:16:51;;;;;;;9.05;1.60;;;35.50;34.20;;;;;;4389870;32;20112;-41
2021/05/30 05:19:17;;;;;;;4.15;1.17;;;35.90;34.50;;;;;;4390029;32;20128;-41
2021/05/30 05:21:43;;;;;;;5.57;1.17;;;36.40;33.80;;;;;;4390356;32;20057;-41
2021/05/30 05:24:10;;;;;;;7.75;1.48;;;36.70;33.20;;;;;;4389852;32;20501;-41
2021/05/30 05:26:36;;;;;;;12.80;1.70;;;36.90;33.00;;;;;;4375372;32;20082;-41
2021/05/30 05:29:05;;;;;;;7.68;1.15;;;36.90;33.10;;;;;;4375974;32;20124;-40
2021/05/30 05:31:32;;;;;;;10.38;1.58;;;37.00;33.10;;;;;;4389218;32;20073;-40
2021/05/30 05:33:58;;;;;;;4.18;1.42;;;37.20;32.60;;;;;;4389884;32;20189;-40
2021/05/30 05:36:24;;;;;;;5.60;1.48;;;37.40;32.50;;;;;;4375147;32;20112;-40
2021/05/30 05:38:51;;;;;;;4.50;0.98;;;37.70;32.30;;;;;;4389184;32;20451;-41
2021/05/30 05:41:18;;;;;;;10.75;1.60;;;38.00;31.60;;;;;;4389814;32;20161;-39
2021/05/30 05:43:44;;;;;;;8.30;1.75;;;38.40;31.40;;;;;;4389643;32;20088;-42
2021/05/30 05:46:11;;;;;;;9.88;2.45;;;38.70;30.90;;;;;;4400705;32;20093;-40
2021/05/30 05:48:37;;;;;;;6.10;1.35;;;39.00;29.90;;;;;;4404757;32;20093;-39
2021/05/30 05:51:04;;;;;;;5.87;1.87;;;39.10;29.60;;;;;;4404760;32;20069;-41
2021/05/30 05:53:30;;;;;;;8.35;2.22;;;39.10;29.50;;;;;;4404667;32;20057;-40
2021/05/30 05:55:57;;;;;;;7.45;1.77;;;39.00;29.80;;;;;;4404782;32;20442;-40
2021/05/30 05:58:23;;;;;;;5.62;0.90;;;38.80;29.20;;;;;;4404601;32;20489;-40
2021/05/30 06:00:50;;;;;;;6.70;1.10;;;38.40;29.20;;;;;;4404156;32;20514;-39
2021/05/30 06:03:16;;;;;;;2.33;0.95;;;38.00;29.50;;;;;;4404201;32;20128;-42
2021/05/30 06:05:43;;;;;;;5.40;1.40;;;37.60;29.60;;;;;;4404794;32;20108;-41
2021/05/30 06:08:09;;;;;;;7.75;2.45;;;37.10;30.00;;;;;;4404222;32;20073;-42
2021/05/30 06:10:36;;;;;;;8.77;2.65;;;36.80;30.90;;;;;;4404451;32;20477;-42
2021/05/30 06:13:09;;;;;;;10.57;1.85;;;36.50;31.10;;;;;;4404701;32;20057;-40
2021/05/30 06:15:38;;;;;;;6.40;2.08;;;36.30;30.90;;;;;;4390567;32;20542;-41
2021/05/30 06:18:11;;;;;;;4.93;1.37;;;36.20;31.30;;;;;;4404590;32;20204;-41
2021/05/30 06:20:38;;;;;;;8.25;1.52;;;36.00;31.30;;;;;;4404171;32;20157;-40
2021/05/30 06:23:07;;;;;;;4.07;1.45;;;35.80;31.40;;;;;;4390615;32;20514;-41
2021/05/30 06:25:34;;;;;;;5.47;1.52;;;35.80;31.50;;;;;;4404117;32;20065;-41
2021/05/30 06:28:01;;;;;;;2.95;0.80;;;35.90;31.40;;;;;;4389941;32;20169;-41
2021/05/30 06:30:37;;;;;;;4.18;1.00;;;36.10;31.60;;;;;;4390287;32;20466;-42
2021/05/30 06:33:06;;;;;;;4.40;1.42;;;36.30;31.60;;;;;;4403955;32;20460;-41
2021/05/30 06:35:32;;;;;;;6.03;1.05;;;36.70;31.20;;;;;;4404386;32;20076;-41
2021/05/30 06:38:01;;;;;;;11.12;1.58;;;37.00;31.10;;;;;;4389866;32;20141;-41
2021/05/30 06:40:28;;;;;;;11.63;1.40;;;37.20;30.80;;;;;;4404105;32;20557;-41
2021/05/30 06:42:55;;;;;;;6.20;1.00;;;37.30;30.60;;;;;;4404192;32;20058;-41
2021/05/30 06:45:21;;;;;;;6.75;1.15;;;37.40;30.70;;;;;;4398413;32;20134;-41
2021/05/30 06:47:47;;;;;;;6.25;1.35;;;37.50;30.50;;;;;;4388617;32;20066;-40
2021/05/30 06:50:14;;;;;;;6.07;1.20;;;37.50;30.30;;;;;;4388907;32;20145;-41
2021/05/30 06:52:41;;;;;;;6.68;1.10;;;37.50;30.40;;;;;;4374341;32;20153;-41
2021/05/30 06:55:08;;;;;;;8.68;1.45;;;37.50;30.40;;;;;;4388669;32;20089;-41
2021/05/30 06:57:34;;;;;;;6.85;1.12;;;37.60;30.20;;;;;;4388521;32;20078;-41
2021/05/30 07:00:03;;;;;;;4.57;1.35;;;37.60;30.80;;;;;;4362265;32;20144;-40
2021/05/30 07:02:30;;;;;;;5.75;1.33;;;37.70;30.80;;;;;;4388730;32;20637;-41
2021/05/30 07:04:56;;;;;;;4.90;1.02;;;37.70;30.60;;;;;;4388939;32;20073;-41
2021/05/30 07:07:22;;;;;;;4.32;1.95;;;37.90;30.50;;;;;;4374574;32;20061;-41
2021/05/30 07:09:49;;;;;;;5.22;1.12;;;38.00;30.20;;;;;;4388587;32;20154;-42
2021/05/30 07:12:15;;;;;;;2.87;1.37;;;38.20;29.90;;;;;;4375180;32;20065;-41
2021/05/30 07:14:42;;;;;;;3.90;1.30;;;38.50;29.60;;;;;;4388129;32;20068;-41
2021/05/30 07:17:08;;;;;;;5.90;2.08;;;38.80;29.50;;;;;;4388524;32;20618;-41
2021/05/30 07:19:35;;;;;;;4.45;1.42;;;39.00;29.60;;;;;;4388581;32;20062;-42
2021/05/30 07:22:01;;;;;;;7.03;2.97;;;39.20;29.10;;;;;;4388427;32;20066;-41
2021/05/30 07:24:28;;;;;;;9.52;1.50;;;39.30;28.90;;;;;;4374074;32;20154;-41
2021/05/30 07:26:54;;;;;;;4.87;1.40;;;39.30;28.90;;;;;;4388232;32;20075;-42
2021/05/30 07:29:20;;;;;;;4.87;1.73;;;39.20;28.90;;;;;;4388040;32;20150;-40
2021/05/30 07:31:48;;;;;;;7.15;1.30;;;39.10;28.90;;;;;;4388412;32;20550;-41
2021/05/30 07:34:15;;;;;;;8.35;1.75;;;39.00;28.80;;;;;;4388131;32;20610;-42
2021/05/30 07:36:41;;;;;;;5.28;1.10;;;38.90;28.70;;;;;;4373970;32;20062;-40
2021/05/30 07:39:07;;;;;;;6.57;1.75;;;38.60;28.80;;;;;;4387773;32;20082;-41
2021/05/30 07:41:34;;;;;;;3.12;1.62;;;38.30;29.00;;;;;;4387753;32;20073;-41
2021/05/30 07:44:01;;;;;;;7.25;1.35;;;38.00;29.50;;;;;;4387715;32;20542;-41
2021/05/30 07:46:27;;;;;;;4.80;1.35;;;37.80;29.40;;;;;;4400513;32;20065;-42
2021/05/30 07:48:54;;;;;;;2.87;1.33;;;37.80;29.70;;;;;;4402739;32;20158;-40
2021/05/30 07:51:20;;;;;;;5.40;1.20;;;37.80;29.50;;;;;;4403541;32;20066;-41
2021/05/30 07:53:47;;;;;;;7.93;1.60;;;37.80;29.50;;;;;;4403117;32;20103;-41
2021/05/30 07:56:13;;;;;;;5.03;1.45;;;37.90;29.90;;;;;;4389038;32;20077;-41
2021/05/30 07:58:40;;;;;;;4.70;1.70;;;38.10;29.70;;;;;;4388663;32;20073;-40
2021/05/30 08:01:07;;;;;;;7.80;3.28;;;38.20;29.40;;;;;;4388544;32;20688;-42
2021/05/30 08:03:33;;;;;;;4.82;1.40;;;38.20;29.70;;;;;;4402901;32;20159;-41
2021/05/30 08:06:00;;;;;;;7.32;1.62;;;38.20;29.60;;;;;;4402810;32;20066;-41
2021/05/30 08:08:26;;;;;;;6.07;2.53;;;38.10;29.90;;;;;;4402962;32;20528;-41
2021/05/30 08:10:53;;;;;;;4.85;1.60;;;38.20;29.60;;;;;;4388858;32;20089;-41
2021/05/30 08:13:19;;;;;;;5.90;1.40;;;38.00;29.30;;;;;;4402903;32;20099;-41
2021/05/30 08:15:46;;;;;;;5.37;1.60;;;37.80;29.40;;;;;;4388481;32;20537;-42
2021/05/30 08:18:12;;;;;;;4.15;1.65;;;37.50;29.80;;;;;;4388995;32;20097;-41
2021/05/30 08:20:39;;;;;;;5.85;1.65;;;37.20;30.00;;;;;;4402496;32;20090;-41
2021/05/30 08:23:05;;;;;;;7.75;1.23;;;37.00;30.10;;;;;;4402618;32;20061;-42
2021/05/30 08:25:32;;;;;;;7.43;1.73;;;36.90;31.20;;;;;;4402996;32;20085;-42
2021/05/30 08:27:58;;;;;;;5.53;2.05;;;36.90;30.30;;;;;;4402540;32;20149;-42
2021/05/30 08:30:25;;;;;;;4.70;1.98;;;36.80;30.50;;;;;;4402771;32;20180;-41
2021/05/30 08:32:51;;;;;;;7.15;1.98;;;36.70;30.60;;;;;;4403278;32;20088;-42
2021/05/30 08:35:18;;;;;;;8.48;2.20;;;36.80;31.00;;;;;;4402516;32;20057;-42
2021/05/30 08:37:44;;;;;;;3.75;1.73;;;36.90;30.40;;;;;;4402869;32;20053;-41
2021/05/30 08:40:14;;;;;;;6.12;1.55;;;36.90;30.30;;;;;;4402552;32;20105;-42
2021/05/30 08:42:41;;;;;;;6.12;1.65;;;36.90;30.40;;;;;;4388858;32;20584;-42
2021/05/30 08:45:08;;;;;;;6.62;2.05;;;36.90;30.60;;;;;;4398223;32;20149;-42
2021/05/30 08:47:34;;;;;;;7.82;1.75;;;36.90;30.60;;;;;;4387776;32;20061;-42
2021/05/30 08:50:01;;;;;;;4.80;1.75;;;36.90;30.50;;;;;;4387650;32;20121;-42
2021/05/30 08:52:28;;;;;;;7.97;2.03;;;36.90;30.50;;;;;;4373351;32;20057;-42
2021/05/30 08:54:55;;;;;;;7.25;2.25;;;37.00;30.40;;;;;;4373551;32;20082;-42
2021/05/30 08:57:22;;;;;;;4.93;2.03;;;37.10;30.10;;;;;;4388006;32;20076;-42
2021/05/30 08:59:54;;;;;;;5.55;1.77;;;37.10;30.00;;;;;;4387794;32;20070;-42
2021/05/30 09:02:21;;;;;;;14.05;2.62;;;37.00;30.40;;;;;;4387493;32;20073;-43
2021/05/30 09:05:00;;;;;;;5.05;1.92;;;37.00;30.40;;;;;;4373667;32;20085;-44
2021/05/30 09:07:44;;;;;;;10.90;1.98;;;37.00;30.30;;;;;;4387630;32;20195;-41
2021/05/30 09:10:18;;;;;;;3.30;1.80;;;36.90;30.30;;;;;;4387935;32;20058;-42
2021/05/30 09:12:44;;;;;;;;;;;36.90;30.40;;;;;;4390528;32;20402;-43
2021/05/30 09:18:24;;;;;;;5.20;1.75;;;37.30;30.60;;;;;;4390018;32;20146;-41
2021/05/30 09:20:54;;;;;;;5.72;1.37;;;37.70;30.00;;;;;;4357471;32;20086;-43
2021/05/30 09:23:33;;;;;;;5.28;1.73;;;37.90;29.90;;;;;;4357443;32;20067;-43
2021/05/30 09:26:26;;;;;;;4.12;1.70;;;38.20;29.60;;;;;;4357612;32;20069;-42
2021/05/30 09:29:09;;;;;;;6.20;1.77;;;38.50;29.40;;;;;;4356234;32;20055;-43
2021/05/30 09:31:58;;;;;;;6.20;1.50;;;38.80;29.20;;;;;;4357115;32;20170;-43
2021/05/30 09:34:32;;;;;;;5.43;1.30;;;38.90;28.70;;;;;;4335690;32;20158;-43
2021/05/30 09:36:58;;;;;;;8.13;1.62;;;39.10;28.30;;;;;;4345249;32;20070;-41
2021/05/30 09:39:44;;;;;;;7.28;1.80;;;39.10;28.10;;;;;;4344730;32;20066;-43
2021/05/30 09:42:25;;;;;;;8.68;2.08;;;38.90;28.40;;;;;;4357241;32;20552;-43
2021/05/30 09:44:56;;;;;;;13.27;3.25;;;38.70;28.80;;;;;;4360166;32;20212;-42
2021/05/30 09:47:40;;;;;;;11.57;2.15;;;38.40;28.50;;;;;;4372370;32;20167;-42
2021/05/30 09:50:08;;;;;;;;;;;38.10;28.90;;;;;;4372389;32;20180;-41
2021/05/30 09:52:46;;;;;;;9.43;1.27;;;38.10;29.30;;;;;;4398126;32;19964;-43
2021/05/30 09:55:27;;;;;;;10.30;1.98;;;38.20;29.20;;;;;;4404876;32;20204;-42
2021/05/30 09:58:15;;;;;;;7.40;1.85;;;38.30;29.10;;;;;;4405011;32;20077;-42
2021/05/30 10:00:43;;;;;;;6.82;1.77;;;38.40;29.00;;;;;;4404690;32;20081;-42
2021/05/30 10:03:10;;;;;;;3.78;1.60;;;38.60;28.90;;;;;;4356562;32;20074;-41
2021/05/30 10:05:37;;;;;;;5.60;2.03;;;38.70;28.80;;;;;;4356690;32;20090;-43
2021/05/30 10:08:04;;;;;;;6.93;2.00;;;38.80;28.90;;;;;;4356473;32;20085;-42
2021/05/30 10:10:31;;;;;;;5.43;1.83;;;38.90;29.50;;;;;;4356952;32;20506;-41
2021/05/30 10:13:00;;;;;;;4.43;1.80;;;38.80;29.00;;;;;;4332170;32;20150;-42
2021/05/30 10:15:26;;;;;;;13.32;3.30;;;38.40;29.20;;;;;;4344958;32;20109;-42
2021/05/30 10:17:53;;;;;;;8.40;1.77;;;38.00;30.00;;;;;;4356815;32;20067;-42
2021/05/30 10:20:23;;;;;;;7.15;1.60;;;37.70;29.80;;;;;;4320041;32;20572;-42
2021/05/30 10:22:54;;;;;;;6.12;1.77;;;37.30;30.10;;;;;;4331658;32;20194;-41
2021/05/30 10:25:33;;;;;;;8.25;1.95;;;37.10;30.40;;;;;;4343786;32;20108;-41
2021/05/30 10:28:19;;;;;;;13.68;2.28;;;37.00;30.60;;;;;;4356732;32;20074;-42
2021/05/30 10:31:12;;;;;;;7.60;1.65;;;36.90;30.30;;;;;;4356268;32;20502;-41
2021/05/30 10:33:38;;;;;;;3.65;1.70;;;36.80;30.00;;;;;;4358659;32;20500;-41
2021/05/30 10:36:12;;;;;;;12.00;1.80;;;36.60;30.10;;;;;;4389482;32;20069;-41
2021/05/30 10:38:43;;;;;;;8.90;1.90;;;36.40;30.30;;;;;;4403536;32;20077;-42
2021/05/30 10:41:20;;;;;;;8.07;2.20;;;36.20;30.10;;;;;;4389895;32;20660;-41
2021/05/30 10:43:47;;;;;;;6.07;1.92;;;36.00;30.40;;;;;;4403964;32;20120;-42
2021/05/30 10:46:13;;;;;;;7.20;2.10;;;35.80;30.60;;;;;;4392426;32;20100;-41
2021/05/30 10:48:41;;;;;;;5.05;1.90;;;35.60;30.70;;;;;;4388544;32;20058;-40
2021/05/30 10:51:16;;;;;;;7.68;2.17;;;35.50;31.00;;;;;;4374042;32;20076;-40
2021/05/30 10:53:48;;;;;;;6.43;1.83;;;35.30;31.20;;;;;;4388697;32;20177;-42
2021/05/30 10:56:32;;;;;;;4.15;1.60;;;35.30;31.00;;;;;;4388654;32;20077;-40
2021/05/30 10:59:04;;;;;;;;;;;35.30;30.60;;;;;;4388771;32;20177;-41
2021/05/30 11:01:34;;;;;;;7.80;2.05;;;35.30;30.60;;;;;;4388904;32;20395;-40
2021/05/30 11:04:31;;;;;;;14.93;2.58;;;35.40;30.90;;;;;;4388280;32;20439;-41
2021/05/30 11:07:16;;;;;;;5.55;2.00;;;35.40;31.20;;;;;;4311951;33;20548;-42
2021/05/30 11:09:52;;;;;;;7.78;2.17;;;35.40;31.40;;;;;;4312149;33;20137;-41
2021/05/30 11:12:29;;;;;;;5.75;1.65;;;35.20;31.20;;;;;;4311708;33;20087;-40
2021/05/30 11:15:11;;;;;;;3.90;2.08;;;35.00;31.20;;;;;;4311577;33;20124;-41
2021/05/30 11:18:01;;;;;;;4.85;2.10;;;34.70;31.60;;;;;;4311632;33;20130;-41
2021/05/30 11:20:45;;;;;;;9.90;2.03;;;34.50;32.10;;;;;;4301556;33;20509;-41
2021/05/30 11:23:17;;;;;;;8.83;1.80;;;34.50;32.50;;;;;;4311397;33;20098;-40
2021/05/30 11:25:56;;;;;;;6.60;1.92;;;34.50;32.50;;;;;;4311574;33;20271;-40
2021/05/30 11:28:24;;;;;;;11.65;2.58;;;34.50;32.40;;;;;;4311599;33;20083;-40
2021/05/30 11:30:58;;;;;;;5.53;2.30;;;34.50;32.40;;;;;;4311491;33;20094;-41
2021/05/30 11:33:25;;;;;;;5.47;1.75;;;34.70;32.30;;;;;;4311505;33;20131;-41
2021/05/30 11:35:59;;;;;;;5.57;2.10;;;34.80;31.90;;;;;;4311126;33;20138;-41
2021/05/30 11:38:51;;;;;;;;;;;34.80;31.70;;;;;;4311670;33;20078;-40
2021/05/30 11:41:34;;;;;;;7.25;1.77;;;34.90;31.70;;;;;;4311692;33;20041;-40
2021/05/30 11:44:18;;;;;;;7.47;2.17;;;35.00;31.50;;;;;;4370669;32;20129;-41
2021/05/30 11:46:56;;;;;;;13.32;3.03;;;35.10;31.40;;;;;;4390589;32;20568;-40
2021/05/30 11:49:41;;;;;;;9.65;3.08;;;35.10;31.70;;;;;;4402901;32;20070;-40
2021/05/30 11:52:11;;;;;;;6.25;1.75;;;35.10;31.30;;;;;;4402814;32;20054;-40
2021/05/30 11:54:52;;;;;;;6.80;2.15;;;35.10;31.20;;;;;;4403279;32;20188;-41
2021/05/30 11:57:25;;;;;;;5.22;1.60;;;35.20;31.20;;;;;;4403107;32;20096;-41
2021/05/30 11:59:59;;;;;;;6.93;2.07;;;35.30;31.10;;;;;;4402964;32;20073;-41
2021/05/30 12:02:26;;;;;;;;;;;35.30;31.00;;;;;;4403089;32;20141;-41
2021/05/30 12:05:03;;;;;;;14.87;3.20;;;35.30;31.00;;;;;;4402562;32;20041;-41
2021/05/30 12:07:29;;;;;;;6.50;2.33;;;35.30;31.30;;;;;;4403069;32;20156;-40
2021/05/30 12:10:01;;;;;;;6.90;2.33;;;35.20;31.80;;;;;;4402542;32;20112;-40
2021/05/30 12:12:36;;;;;;;9.85;2.45;;;35.20;32.00;;;;;;4403117;32;20072;-40
2021/05/30 12:15:18;;;;;;;7.87;2.47;;;35.20;32.20;;;;;;4389716;32;20057;-41
2021/05/30 12:18:04;;;;;;;6.72;1.70;;;35.30;31.80;;;;;;4390172;32;20093;-41
2021/05/30 12:20:40;;;;;;;7.37;1.90;;;35.50;31.90;;;;;;4389215;32;20068;-41
2021/05/30 12:23:20;;;;;;;7.05;1.90;;;35.60;31.40;;;;;;4403448;32;20197;-42
2021/05/30 12:26:04;;;;;;;5.40;1.40;;;35.80;31.40;;;;;;4388706;32;20460;-41
2021/05/30 12:28:36;;;;;;;7.85;1.23;;;36.00;31.20;;;;;;4388470;32;20124;-41
2021/05/30 12:31:25;;;;;;;13.00;2.70;;;36.00;31.10;;;;;;4388673;32;20073;-41
2021/05/30 12:34:01;;;;;;;8.95;1.60;;;36.10;31.10;;;;;;4402700;32;20145;-41
2021/05/30 12:36:39;;;;;;;6.40;1.58;;;36.10;30.90;;;;;;4402743;32;20567;-42
2021/05/30 12:39:17;;;;;;;5.25;1.70;;;36.20;30.80;;;;;;4402815;32;20065;-40
2021/05/30 12:41:57;;;;;;;6.65;2.08;;;36.20;30.70;;;;;;4402860;32;20108;-41
2021/05/30 12:44:31;;;;;;;7.00;1.50;;;36.20;30.70;;;;;;4402555;32;20097;-41
2021/05/30 12:47:01;;;;;;;7.60;1.50;;;36.20;30.80;;;;;;4389414;32;20176;-41
2021/05/30 12:49:27;;;;;;;3.87;1.50;;;36.20;30.90;;;;;;4390180;32;20131;-41
2021/05/30 12:52:03;;;;;;;7.75;1.92;;;36.30;30.50;;;;;;4376061;32;20577;-41
2021/05/30 12:54:32;;;;;;;7.22;1.20;;;36.40;30.30;;;;;;4390440;32;20146;-40
2021/05/30 12:56:59;;;;;;;5.72;1.10;;;36.60;30.00;;;;;;4364457;32;20096;-41
2021/05/30 12:59:28;;;;;;;5.62;1.20;;;36.60;29.80;;;;;;4390325;32;20092;-42
2021/05/30 13:01:57;;;;;;;7.97;1.30;;;36.60;29.90;;;;;;4376556;32;20089;-41
2021/05/30 13:04:25;;;;;;;4.07;1.37;;;36.70;29.50;;;;;;4376230;32;20139;-41